Time;durP1;ratioP1;P1;durP2;ratioP2;P2;SDS_P1;SDS_P2;PMS_P1;PMS_P2;Temp;Humidity;BMP_temperature;BMP_pressure;BME280_temperature;BME280_humidity;BME280_pressure;Samples;Min_cycle;Max_cycle;Signal;HPM_P1;HPM_P2
2022/12/06 00:02:20;;;;;;;14.23;2.53;;;22.20;45.70;;;;;;5052889;28;20092;-70
2022/12/06 00:04:46;;;;;;;10.75;1.63;;;22.20;46.10;;;;;;5045751;28;20112;-69
2022/12/06 00:07:13;;;;;;;9.10;1.70;;;22.10;46.10;;;;;;5048280;28;20113;-69
2022/12/06 00:09:39;;;;;;;12.10;1.75;;;22.10;46.40;;;;;;5050969;28;20088;-68
2022/12/06 00:12:06;;;;;;;8.27;1.85;;;22.00;46.30;;;;;;5049614;28;20096;-69
2022/12/06 00:14:32;;;;;;;16.02;2.42;;;22.00;46.30;;;;;;5050134;28;20070;-70
2022/12/06 00:16:58;;;;;;;13.43;1.95;;;21.80;46.60;;;;;;5050445;28;20099;-70
2022/12/06 00:19:25;;;;;;;12.43;1.73;;;21.80;47.00;;;;;;5049970;28;20065;-69
2022/12/06 00:21:53;;;;;;;7.80;1.58;;;21.70;46.40;;;;;;5048232;28;20143;-69
2022/12/06 00:24:21;;;;;;;8.45;2.40;;;21.60;46.00;;;;;;5048864;28;20071;-68
2022/12/06 00:26:49;;;;;;;9.25;1.70;;;21.50;46.20;;;;;;5050980;28;20187;-70
2022/12/06 00:29:21;;;;;;;9.35;1.55;;;21.40;46.40;;;;;;5049988;28;20077;-72
2022/12/06 00:31:48;;;;;;;5.97;1.55;;;21.40;47.00;;;;;;5050140;28;20436;-69
2022/12/06 00:34:15;;;;;;;11.40;1.67;;;21.30;47.50;;;;;;5050374;28;20525;-71
2022/12/06 00:36:42;;;;;;;8.73;1.55;;;21.20;48.30;;;;;;5050456;28;20450;-68
2022/12/06 00:39:11;;;;;;;11.50;1.42;;;21.00;48.30;;;;;;5047763;28;20071;-71
2022/12/06 00:41:38;;;;;;;17.95;1.80;;;20.90;48.40;;;;;;5050442;28;20066;-71
2022/12/06 00:44:05;;;;;;;9.70;1.48;;;20.80;49.10;;;;;;5049439;28;20060;-69
2022/12/06 00:46:33;;;;;;;8.20;1.38;;;20.70;49.10;;;;;;5049819;28;20069;-70
2022/12/06 00:49:01;;;;;;;12.13;1.90;;;20.60;49.40;;;;;;5049227;28;20078;-69
2022/12/06 00:51:30;;;;;;;5.18;1.75;;;20.50;49.40;;;;;;5049812;28;20072;-68
2022/12/06 00:53:57;;;;;;;21.20;2.72;;;20.50;49.80;;;;;;5047976;28;20096;-71
2022/12/06 00:56:25;;;;;;;9.48;1.98;;;20.40;50.10;;;;;;5049168;28;20070;-68
2022/12/06 00:58:51;;;;;;;17.27;4.18;;;20.30;50.30;;;;;;5048969;28;20103;-69
2022/12/06 01:01:24;;;;;;;20.60;3.78;;;20.30;50.50;;;;;;5047515;28;20088;-71
2022/12/06 01:03:53;;;;;;;22.58;4.78;;;20.30;50.70;;;;;;5046150;28;20081;-72
2022/12/06 01:06:24;;;;;;;18.17;3.80;;;20.20;51.10;;;;;;5050409;28;20235;-71
2022/12/06 01:08:53;;;;;;;5.55;2.47;;;20.10;51.40;;;;;;5049182;28;20119;-67
2022/12/06 01:11:21;;;;;;;26.77;3.90;;;20.10;51.60;;;;;;5048514;28;20075;-69
2022/12/06 01:13:47;;;;;;;22.73;4.03;;;20.00;52.10;;;;;;5048609;28;20097;-71
2022/12/06 01:16:17;;;;;;;21.00;3.63;;;19.90;52.20;;;;;;5046974;28;20074;-69
2022/12/06 01:18:44;;;;;;;21.30;3.83;;;19.80;52.40;;;;;;5048612;28;20084;-71
2022/12/06 01:21:14;;;;;;;28.27;4.68;;;19.70;52.70;;;;;;5048126;28;20160;-67
2022/12/06 01:23:41;;;;;;;27.75;4.50;;;19.70;52.90;;;;;;5048353;28;20177;-73
2022/12/06 01:26:13;;;;;;;35.55;3.08;;;19.70;53.20;;;;;;5048538;28;20069;-73
2022/12/06 01:28:39;;;;;;;15.20;1.83;;;19.60;52.80;;;;;;5047968;28;20167;-64
2022/12/06 01:31:06;;;;;;;13.18;1.77;;;19.60;52.50;;;;;;5048840;28;20077;-68
2022/12/06 01:33:34;;;;;;;30.15;3.38;;;19.70;52.10;;;;;;5053795;28;20083;-69
2022/12/06 01:36:00;;;;;;;19.25;1.95;;;19.60;51.90;;;;;;5051186;28;20157;-68
2022/12/06 01:38:26;;;;;;;10.85;1.92;;;19.60;51.70;;;;;;5047058;28;20081;-68
2022/12/06 01:40:53;;;;;;;12.90;6.30;;;19.60;52.10;;;;;;5047302;28;20609;-70
2022/12/06 01:43:41;;;;;;;28.33;15.05;;;19.50;52.00;;;;;;5046096;28;20131;-69
2022/12/06 01:46:35;;;;;;;12.40;5.03;;;19.50;52.10;;;;;;5043872;28;20069;-67
2022/12/06 01:49:13;;;;;;;9.50;1.98;;;19.50;52.40;;;;;;5043704;28;20073;-70
2022/12/06 01:52:02;;;;;;;8.77;2.60;;;19.40;52.60;;;;;;5046824;28;20073;-70
2022/12/06 01:54:29;;;;;;;8.80;2.65;;;19.40;52.80;;;;;;5045182;28;20131;-69
2022/12/06 01:56:57;;;;;;;7.70;1.92;;;19.30;53.40;;;;;;5046997;28;20062;-72
2022/12/06 01:59:25;;;;;;;7.90;1.60;;;19.30;53.60;;;;;;5046214;28;20066;-70
2022/12/06 02:01:52;;;;;;;12.77;1.75;;;19.20;53.80;;;;;;5046716;28;20065;-69
2022/12/06 02:04:19;;;;;;;13.52;1.80;;;19.20;54.20;;;;;;5045748;28;20073;-69
2022/12/06 02:06:46;;;;;;;13.02;2.17;;;19.20;54.30;;;;;;5053595;28;20176;-70
2022/12/06 02:09:14;;;;;;;10.32;1.70;;;19.20;54.80;;;;;;5051079;28;20070;-70
2022/12/06 02:11:42;;;;;;;14.13;2.08;;;19.10;55.00;;;;;;5052205;28;20095;-68
2022/12/06 02:14:17;;;;;;;14.95;2.55;;;19.10;55.00;;;;;;5053345;28;20077;-69
2022/12/06 02:16:50;;;;;;;21.55;2.47;;;19.10;55.20;;;;;;5050207;28;20080;-68
2022/12/06 02:19:34;;;;;;;22.98;2.35;;;19.10;55.40;;;;;;5052896;28;20092;-69
2022/12/06 02:22:15;;;;;;;22.17;2.90;;;19.10;55.60;;;;;;5051025;28;20073;-71
2022/12/06 02:25:10;;;;;;;19.30;2.28;;;19.10;55.80;;;;;;5052116;28;20173;-70
2022/12/06 02:27:43;;;;;;;26.20;2.45;;;19.10;55.80;;;;;;5052045;28;20066;-70
2022/12/06 02:30:27;;;;;;;10.13;1.80;;;19.10;55.80;;;;;;5050056;28;20061;-68
2022/12/06 02:33:05;;;;;;;11.55;2.10;;;19.10;55.60;;;;;;5052410;28;20215;-69
2022/12/06 02:35:39;;;;;;;11.73;2.35;;;19.10;55.70;;;;;;5052663;28;20069;-68
2022/12/06 02:38:46;;;;;;;13.57;3.53;;;19.10;55.70;;;;;;5049407;28;20382;-68
2022/12/06 02:41:21;;;;;;;16.15;4.05;;;19.10;56.00;;;;;;5035250;28;20214;-70
2022/12/06 02:44:03;;;;;;;16.15;3.08;;;19.00;56.30;;;;;;5052359;28;20089;-71
2022/12/06 02:46:34;;;;;;;9.07;2.50;;;19.00;56.50;;;;;;5051284;28;20547;-70
2022/12/06 02:49:03;;;;;;;11.93;2.00;;;19.00;56.60;;;;;;5052529;28;20108;-71
2022/12/06 02:51:32;;;;;;;15.73;1.77;;;18.90;56.50;;;;;;5052305;28;20127;-69
2022/12/06 02:54:02;;;;;;;9.05;2.08;;;18.90;56.50;;;;;;5051409;28;20180;-70
2022/12/06 02:56:32;;;;;;;12.52;1.60;;;18.90;56.40;;;;;;5052193;28;20497;-70
2022/12/06 02:58:59;;;;;;;8.45;1.85;;;18.90;56.40;;;;;;5048849;28;20519;-71
2022/12/06 03:01:30;;;;;;;10.18;1.90;;;18.90;56.50;;;;;;5051563;28;20082;-72
2022/12/06 03:04:05;;;;;;;5.38;1.70;;;18.70;56.40;;;;;;5047701;28;20085;-71
2022/12/06 03:07:00;;;;;;;11.32;2.20;;;18.70;56.60;;;;;;5052478;28;20148;-72
2022/12/06 03:09:48;;;;;;;11.45;1.90;;;18.70;56.70;;;;;;5049398;28;20065;-70
2022/12/06 03:12:23;;;;;;;15.48;4.72;;;18.60;56.80;;;;;;5050177;28;20085;-69
2022/12/06 03:15:07;;;;;;;18.80;2.38;;;18.50;56.90;;;;;;5048940;28;20069;-70
2022/12/06 03:17:40;;;;;;;8.48;2.30;;;18.50;56.90;;;;;;5051075;28;20080;-70
2022/12/06 03:20:41;;;;;;;11.30;1.90;;;18.40;57.20;;;;;;5058714;28;20089;-70
2022/12/06 03:23:15;;;;;;;9.38;1.55;;;18.40;57.30;;;;;;5050773;28;20065;-70
2022/12/06 03:25:44;;;;;;;10.15;1.38;;;18.40;57.70;;;;;;5049029;28;20480;-69
2022/12/06 03:28:13;;;;;;;3.22;1.17;;;18.20;57.80;;;;;;5049383;28;20062;-69
2022/12/06 03:30:42;;;;;;;4.15;1.23;;;18.10;58.10;;;;;;5050554;28;20092;-71
2022/12/06 03:33:11;;;;;;;10.90;1.55;;;18.10;58.40;;;;;;5051635;28;20085;-70
2022/12/06 03:35:38;;;;;;;5.20;1.50;;;17.90;58.50;;;;;;5051241;28;20072;-73
2022/12/06 03:38:09;;;;;;;4.53;1.20;;;17.90;58.90;;;;;;5049883;28;20072;-71
2022/12/06 03:40:41;;;;;;;5.55;1.70;;;17.80;59.30;;;;;;5049879;28;20504;-69
2022/12/06 03:43:07;;;;;;;5.13;1.38;;;17.80;59.60;;;;;;5048973;28;20434;-69
2022/12/06 03:45:58;;;;;;;4.47;1.48;;;17.70;60.10;;;;;;5051204;28;20074;-68
2022/12/06 03:48:32;;;;;;;12.38;1.70;;;17.60;60.80;;;;;;5049557;28;20101;-71
2022/12/06 03:51:06;;;;;;;6.45;1.33;;;17.50;61.10;;;;;;5050716;28;20101;-69
2022/12/06 03:53:33;;;;;;;10.38;1.50;;;17.40;61.50;;;;;;5051063;28;20622;-69
2022/12/06 03:56:00;;;;;;;3.28;1.10;;;17.30;61.80;;;;;;5050051;28;20069;-68
2022/12/06 03:58:27;;;;;;;6.22;1.20;;;17.20;62.10;;;;;;5050013;28;20108;-68
2022/12/06 04:00:53;;;;;;;6.10;1.17;;;17.10;62.40;;;;;;5049055;28;20078;-70
2022/12/06 04:03:19;;;;;;;7.90;1.20;;;17.10;62.80;;;;;;5048166;28;20123;-69
2022/12/06 04:05:46;;;;;;;2.78;1.20;;;17.00;63.10;;;;;;5049295;28;20544;-70
2022/12/06 04:08:12;;;;;;;5.70;1.27;;;17.00;63.10;;;;;;5050717;28;20080;-68
2022/12/06 04:10:38;;;;;;;;;;;17.00;63.20;;;;;;5051158;28;20105;-68
2022/12/06 04:13:05;;;;;;;7.07;1.02;;;17.00;63.20;;;;;;5051051;28;20039;-68
2022/12/06 04:15:36;;;;;;;8.23;1.30;;;17.00;63.30;;;;;;5048771;28;20081;-70
2022/12/06 04:18:17;;;;;;;3.40;1.02;;;16.90;63.50;;;;;;5051138;28;20527;-69
2022/12/06 04:23:51;;;;;;;8.45;1.23;;;16.90;63.40;;;;;;5008761;28;20124;-70
2022/12/06 04:26:21;;;;;;;8.63;1.23;;;16.90;64.10;;;;;;5008647;28;20604;-70
2022/12/06 04:39:49;;;;;;;7.20;1.17;;;16.90;62.80;;;;;;5007736;28;20077;-69
2022/12/06 04:45:02;;;;;;;4.30;1.70;;;16.90;63.00;;;;;;5009362;28;20279;-71
2022/12/06 04:47:29;;;;;;;7.35;1.20;;;16.90;63.10;;;;;;5008991;28;20090;-68
2022/12/06 04:49:55;;;;;;;6.03;1.60;;;17.00;62.50;;;;;;4992057;28;20144;-72
2022/12/06 04:52:22;;;;;;;9.80;1.30;;;17.00;62.80;;;;;;4992017;28;20094;-69
2022/12/06 04:54:48;;;;;;;4.32;1.13;;;16.90;62.80;;;;;;5032143;28;21431;-69
2022/12/06 04:57:16;;;;;;;7.50;1.35;;;16.90;63.20;;;;;;5050499;28;20070;-71
2022/12/06 04:59:44;;;;;;;3.58;1.00;;;16.90;63.10;;;;;;5048599;28;20471;-71
2022/12/06 05:02:13;;;;;;;3.60;1.10;;;16.90;63.20;;;;;;5049975;28;20073;-69
2022/12/06 05:04:40;;;;;;;4.18;1.00;;;16.80;63.40;;;;;;5045986;28;20146;-70
2022/12/06 05:07:08;;;;;;;6.13;1.20;;;16.80;63.40;;;;;;5046885;28;20143;-69
2022/12/06 05:09:34;;;;;;;8.55;1.27;;;16.70;63.60;;;;;;5050059;28;20089;-70
2022/12/06 05:12:00;;;;;;;;;;;16.70;63.50;;;;;;5050123;28;20072;-69
2022/12/06 05:14:27;;;;;;;6.03;1.00;;;16.70;63.40;;;;;;5049374;28;19988;-65
2022/12/06 05:16:53;;;;;;;7.00;1.27;;;16.70;63.10;;;;;;5049823;28;20076;-70
2022/12/06 05:19:20;;;;;;;4.70;1.10;;;16.70;63.10;;;;;;5049078;28;20140;-71
2022/12/06 05:21:46;;;;;;;9.30;1.45;;;16.70;63.30;;;;;;5049364;28;20073;-71
2022/12/06 05:24:13;;;;;;;7.25;1.50;;;16.70;63.40;;;;;;5049373;28;20066;-71
2022/12/06 05:26:40;;;;;;;4.07;1.17;;;16.70;63.60;;;;;;5049982;28;20066;-72
2022/12/06 05:29:06;;;;;;;4.25;1.30;;;16.60;63.60;;;;;;5049414;28;20062;-68
2022/12/06 05:31:32;;;;;;;;;;;16.60;63.60;;;;;;5050481;28;20076;-71
2022/12/06 05:33:58;;;;;;;5.35;1.40;;;16.60;64.40;;;;;;5048647;28;19981;-70
2022/12/06 05:36:26;;;;;;;18.85;9.98;;;16.50;63.70;;;;;;5048884;28;20061;-70
2022/12/06 05:38:53;;;;;;;24.17;11.98;;;16.50;63.70;;;;;;5047817;28;20148;-71
2022/12/06 05:41:21;;;;;;;3.97;1.20;;;16.60;64.10;;;;;;5048847;28;20085;-70
2022/12/06 05:43:48;;;;;;;4.25;1.15;;;16.60;63.90;;;;;;5048948;28;20077;-71
2022/12/06 05:46:15;;;;;;;5.78;1.50;;;16.50;63.90;;;;;;5049270;28;20116;-70
2022/12/06 05:48:41;;;;;;;9.32;1.33;;;16.50;63.90;;;;;;5048882;28;20081;-70
2022/12/06 05:51:08;;;;;;;5.63;1.27;;;16.50;64.00;;;;;;5046885;28;20082;-70
2022/12/06 05:53:35;;;;;;;4.93;1.15;;;16.40;63.70;;;;;;5049474;28;20180;-71
2022/12/06 05:56:09;;;;;;;7.07;1.65;;;16.40;63.80;;;;;;5046174;28;20077;-69
2022/12/06 05:58:36;;;;;;;3.83;1.10;;;16.50;64.10;;;;;;5048183;28;20104;-70
2022/12/06 06:01:02;;;;;;;7.38;1.13;;;16.40;64.20;;;;;;5046153;28;20065;-71
2022/12/06 06:03:29;;;;;;;4.22;0.95;;;16.40;64.60;;;;;;5047621;28;20070;-71
2022/12/06 06:05:59;;;;;;;8.82;1.20;;;16.30;64.60;;;;;;5045143;28;20112;-71
2022/12/06 06:08:26;;;;;;;10.77;1.70;;;16.30;64.90;;;;;;5049589;28;20443;-70
2022/12/06 06:10:53;;;;;;;7.28;0.90;;;16.30;65.00;;;;;;5049073;28;20180;-70
2022/12/06 06:13:20;;;;;;;8.68;1.20;;;16.30;65.30;;;;;;5049421;28;20577;-71
2022/12/06 06:15:48;;;;;;;5.50;1.23;;;16.30;65.30;;;;;;5048354;28;20112;-71
2022/12/06 06:18:15;;;;;;;8.48;1.50;;;16.30;65.50;;;;;;5049004;28;20076;-70
2022/12/06 06:20:41;;;;;;;5.78;1.27;;;16.30;65.70;;;;;;5045521;28;20073;-69
2022/12/06 06:23:08;;;;;;;4.05;1.35;;;16.30;65.70;;;;;;5049388;28;20078;-70
2022/12/06 06:25:34;;;;;;;5.55;0.98;;;16.20;65.50;;;;;;5048307;28;20527;-69
2022/12/06 06:28:00;;;;;;;4.82;1.00;;;16.30;65.20;;;;;;5047966;28;20138;-69
2022/12/06 06:30:27;;;;;;;2.30;1.10;;;16.20;65.30;;;;;;5046656;28;20074;-68
2022/12/06 06:32:53;;;;;;;3.55;0.88;;;16.20;65.20;;;;;;5048765;28;20135;-69
2022/12/06 06:35:19;;;;;;;6.72;1.20;;;16.20;65.00;;;;;;5049123;28;20066;-70
2022/12/06 06:37:47;;;;;;;4.35;1.25;;;16.20;65.50;;;;;;5048205;28;20526;-69
2022/12/06 06:40:13;;;;;;;4.63;1.23;;;16.20;65.60;;;;;;5047064;28;21689;-69
2022/12/06 06:42:40;;;;;;;4.93;1.20;;;16.10;65.60;;;;;;5046651;28;20588;-70
2022/12/06 06:45:06;;;;;;;;;;;16.10;65.30;;;;;;5048525;28;20157;-70
2022/12/06 06:47:32;;;;;;;5.13;1.30;;;16.00;65.40;;;;;;5048591;28;19957;-71
2022/12/06 06:49:59;;;;;;;5.65;1.50;;;16.00;65.80;;;;;;5049809;28;20081;-71
2022/12/06 06:52:25;;;;;;;5.35;1.00;;;16.00;65.80;;;;;;5050105;28;20626;-69
2022/12/06 06:54:52;;;;;;;4.00;1.38;;;16.10;66.00;;;;;;5052396;28;20070;-70
2022/12/06 06:57:18;;;;;;;6.28;1.20;;;16.00;66.20;;;;;;5051508;28;20085;-69
2022/12/06 06:59:45;;;;;;;7.65;1.20;;;16.00;66.20;;;;;;5051136;28;20151;-71
2022/12/06 07:02:13;;;;;;;6.95;1.52;;;16.00;65.80;;;;;;5051176;28;20089;-70
2022/12/06 07:04:39;;;;;;;7.40;1.38;;;16.00;66.00;;;;;;5048561;28;20082;-69
2022/12/06 07:07:06;;;;;;;6.43;1.50;;;15.90;65.50;;;;;;5052033;28;20073;-70
2022/12/06 07:09:32;;;;;;;7.88;1.10;;;16.00;65.10;;;;;;5051838;28;20249;-68
2022/12/06 07:11:58;;;;;;;4.05;1.10;;;15.90;65.00;;;;;;5050721;28;20088;-72
2022/12/06 07:14:25;;;;;;;8.85;2.05;;;15.90;64.60;;;;;;5051793;28;20160;-69
2022/12/06 07:16:52;;;;;;;7.82;3.63;;;16.00;64.10;;;;;;5050678;28;20066;-69
2022/12/06 07:19:18;;;;;;;7.07;2.25;;;15.90;63.70;;;;;;5051509;28;20423;-71
2022/12/06 07:21:45;;;;;;;6.25;1.17;;;15.90;63.60;;;;;;5050945;28;20070;-71
2022/12/06 07:24:11;;;;;;;27.70;13.90;;;15.90;63.50;;;;;;5051830;28;20076;-70
2022/12/06 07:26:37;;;;;;;4.75;1.02;;;16.00;63.40;;;;;;5050923;28;20078;-69
2022/12/06 07:29:03;;;;;;;;;;;15.90;63.30;;;;;;5051260;28;20109;-69
2022/12/06 07:31:30;;;;;;;9.80;1.30;;;15.90;63.70;;;;;;5051204;28;20036;-70
2022/12/06 07:34:00;;;;;;;7.05;1.58;;;15.90;63.70;;;;;;5050989;28;20078;-71
2022/12/06 07:36:29;;;;;;;5.97;1.50;;;15.90;63.80;;;;;;5051991;28;20554;-68
2022/12/06 07:38:57;;;;;;;7.57;1.20;;;15.80;63.90;;;;;;5049816;28;20068;-72
2022/12/06 07:46:57;;;;;;;3.30;1.10;;;15.70;64.60;;;;;;5050323;28;20770;-70
2022/12/06 07:49:24;;;;;;;2.50;0.90;;;15.60;64.70;;;;;;5051432;28;20073;-69
2022/12/06 07:51:53;;;;;;;4.47;1.17;;;15.60;65.20;;;;;;5049924;28;20081;-71
2022/12/06 07:54:20;;;;;;;6.28;1.40;;;15.50;65.00;;;;;;5051741;28;20074;-68
2022/12/06 07:56:47;;;;;;;5.15;1.50;;;15.50;65.10;;;;;;5051305;28;20489;-70
2022/12/06 07:59:14;;;;;;;4.07;1.00;;;15.50;65.40;;;;;;5050671;28;20123;-69
2022/12/06 08:01:40;;;;;;;7.97;1.33;;;15.50;65.60;;;;;;5049933;28;20072;-69
2022/12/06 08:04:07;;;;;;;2.90;1.23;;;15.40;65.30;;;;;;5048959;28;20076;-68
2022/12/06 08:06:34;;;;;;;4.07;1.30;;;15.40;65.30;;;;;;5048849;28;20109;-69
2022/12/06 08:09:01;;;;;;;8.88;1.45;;;15.40;65.10;;;;;;5051765;28;20156;-69
2022/12/06 08:11:27;;;;;;;2.78;0.85;;;15.40;65.10;;;;;;5051462;28;20084;-69
2022/12/06 08:13:54;;;;;;;4.90;1.50;;;15.40;64.60;;;;;;5051413;28;20610;-69
2022/12/06 08:16:20;;;;;;;5.13;1.33;;;15.40;64.20;;;;;;5050645;28;20069;-71
2022/12/06 08:18:47;;;;;;;4.60;1.30;;;15.40;64.10;;;;;;5050205;28;20074;-70
2022/12/06 08:21:14;;;;;;;7.20;1.50;;;15.40;64.30;;;;;;5050952;28;20535;-70
2022/12/06 08:23:41;;;;;;;7.25;1.30;;;15.40;64.20;;;;;;5050498;28;20089;-72
2022/12/06 08:26:11;;;;;;;4.28;1.33;;;15.40;63.90;;;;;;5050759;28;20496;-71
2022/12/06 08:28:38;;;;;;;4.25;1.35;;;15.40;63.70;;;;;;5049969;28;20101;-69
2022/12/06 08:31:10;;;;;;;4.43;1.10;;;15.40;63.30;;;;;;5050655;28;20081;-71
2022/12/06 08:33:36;;;;;;;7.25;1.42;;;15.40;63.10;;;;;;5049406;28;20085;-70
2022/12/06 08:36:08;;;;;;;3.67;1.00;;;15.40;62.70;;;;;;5050193;28;20538;-72
2022/12/06 08:38:36;;;;;;;3.33;1.08;;;15.40;62.50;;;;;;5051247;28;20069;-68
2022/12/06 08:41:02;;;;;;;5.80;1.77;;;15.40;63.20;;;;;;5055385;28;20085;-70
2022/12/06 08:43:30;;;;;;;5.22;1.25;;;15.40;62.50;;;;;;5049748;28;20077;-70
2022/12/06 08:45:57;;;;;;;4.25;1.50;;;15.40;62.50;;;;;;5050512;28;20522;-70
2022/12/06 08:48:23;;;;;;;6.70;1.65;;;15.40;62.50;;;;;;5049744;28;20113;-70
2022/12/06 08:50:50;;;;;;;4.03;1.10;;;15.40;62.20;;;;;;5050320;28;20082;-71
2022/12/06 08:53:16;;;;;;;3.75;1.20;;;15.40;62.20;;;;;;5051070;28;20458;-69
2022/12/06 08:55:51;;;;;;;4.00;1.30;;;15.40;61.70;;;;;;5050841;28;20072;-69
2022/12/06 08:58:18;;;;;;;4.40;1.55;;;15.40;61.80;;;;;;5049895;28;20065;-69
2022/12/06 09:00:44;;;;;;;7.32;1.58;;;15.40;62.00;;;;;;5050180;28;20458;-69
2022/12/06 09:03:11;;;;;;;8.52;1.75;;;15.40;61.70;;;;;;5050017;28;20077;-68
2022/12/06 09:05:37;;;;;;;6.43;1.45;;;15.40;62.00;;;;;;5046158;28;20335;-70
2022/12/06 09:08:03;;;;;;;5.25;1.20;;;15.50;61.80;;;;;;5050223;28;20095;-70
2022/12/06 09:10:30;;;;;;;5.15;1.60;;;15.40;61.60;;;;;;5048637;28;20531;-73
2022/12/06 09:12:56;;;;;;;4.32;1.23;;;15.40;61.70;;;;;;5049735;28;20136;-71
2022/12/06 09:15:22;;;;;;;6.05;1.17;;;15.40;61.90;;;;;;5050511;28;20081;-69
2022/12/06 09:17:48;;;;;;;;;;;15.40;62.10;;;;;;5049923;28;20074;-69
2022/12/06 09:20:17;;;;;;;5.05;1.45;;;15.40;62.10;;;;;;5050086;28;19964;-70
2022/12/06 09:22:44;;;;;;;5.80;1.70;;;15.40;62.20;;;;;;5049366;28;20500;-70
2022/12/06 09:25:10;;;;;;;3.67;1.58;;;15.40;62.10;;;;;;5050314;28;20101;-69
2022/12/06 09:27:38;;;;;;;5.07;1.33;;;15.40;62.10;;;;;;5049299;28;20081;-72
2022/12/06 09:30:05;;;;;;;2.95;1.15;;;15.30;62.20;;;;;;5050087;28;20076;-69
2022/12/06 09:32:32;;;;;;;2.22;1.17;;;15.30;62.00;;;;;;5047385;28;20093;-69
2022/12/06 09:34:58;;;;;;;8.70;1.52;;;15.30;61.90;;;;;;5049467;28;20073;-69
2022/12/06 09:37:24;;;;;;;;;;;15.30;62.00;;;;;;5049243;28;20065;-68
2022/12/06 09:39:56;;;;;;;6.13;1.48;;;15.30;62.20;;;;;;5049643;28;19973;-69
2022/12/06 09:42:50;;;;;;;6.32;1.40;;;15.30;62.40;;;;;;5046490;28;20073;-68
2022/12/06 09:45:41;;;;;;;5.15;1.60;;;15.20;62.10;;;;;;5047308;28;20074;-71
2022/12/06 09:48:42;;;;;;;3.10;1.10;;;15.20;62.30;;;;;;5047138;28;20093;-70
2022/12/06 09:51:40;;;;;;;4.32;1.45;;;15.20;62.00;;;;;;5046065;28;20076;-67
2022/12/06 09:54:22;;;;;;;4.97;1.50;;;15.20;61.60;;;;;;5049093;28;20543;-68
2022/12/06 09:57:00;;;;;;;5.55;1.50;;;15.20;61.30;;;;;;5050642;28;20077;-70
2022/12/06 09:59:44;;;;;;;9.75;1.52;;;15.20;61.50;;;;;;5048740;28;20485;-70
2022/12/06 10:02:38;;;;;;;5.55;1.40;;;15.20;61.30;;;;;;5048096;28;20097;-68
2022/12/06 10:05:23;;;;;;;5.28;1.67;;;15.20;61.40;;;;;;5046329;28;20192;-70
2022/12/06 10:08:08;;;;;;;4.18;1.27;;;15.10;61.50;;;;;;5048944;28;20455;-71
2022/12/06 10:10:53;;;;;;;4.45;1.40;;;15.10;61.10;;;;;;5048118;28;20153;-70
2022/12/06 10:13:30;;;;;;;4.40;1.20;;;15.10;61.10;;;;;;5046766;28;20082;-70
2022/12/06 10:16:14;;;;;;;3.17;1.10;;;15.00;61.00;;;;;;5049717;28;20077;-69
2022/12/06 10:19:16;;;;;;;3.65;1.00;;;15.00;60.80;;;;;;5047444;28;20088;-71
2022/12/06 10:21:48;;;;;;;2.85;0.90;;;14.90;60.50;;;;;;5049453;28;20434;-70
2022/12/06 10:24:54;;;;;;;2.22;1.00;;;14.90;60.70;;;;;;5046696;28;20070;-71
2022/12/06 10:27:38;;;;;;;2.53;0.93;;;14.90;60.80;;;;;;5052890;28;20101;-70
2022/12/06 10:30:07;;;;;;;3.97;1.10;;;14.80;60.90;;;;;;5052171;28;20074;-70
2022/12/06 10:32:49;;;;;;;3.75;1.10;;;14.80;61.00;;;;;;5053208;28;20077;-71
2022/12/06 10:35:18;;;;;;;2.97;0.90;;;14.70;61.00;;;;;;5050375;28;20340;-70
2022/12/06 10:38:14;;;;;;;4.10;1.00;;;14.70;61.20;;;;;;5051751;28;20871;-69
2022/12/06 10:40:54;;;;;;;3.13;1.13;;;14.60;61.50;;;;;;5052104;28;20520;-71
2022/12/06 10:43:39;;;;;;;6.30;1.15;;;14.60;62.10;;;;;;5052301;28;20088;-69
2022/12/06 10:49:19;;;;;;;3.20;1.30;;;14.50;63.40;;;;;;5049458;28;20097;-69
2022/12/06 10:51:54;;;;;;;3.88;1.33;;;14.50;63.80;;;;;;5049844;28;20070;-70
2022/12/06 10:54:39;;;;;;;4.95;1.40;;;14.50;64.20;;;;;;5049673;28;20116;-70
2022/12/06 10:57:14;;;;;;;4.25;1.23;;;14.50;64.10;;;;;;5051392;28;20080;-68
2022/12/06 11:00:03;;;;;;;4.35;1.20;;;14.50;64.20;;;;;;5050485;28;20089;-68
2022/12/06 11:02:52;;;;;;;5.57;1.23;;;14.50;64.30;;;;;;5052397;28;20184;-72
2022/12/06 11:05:46;;;;;;;4.95;1.40;;;14.50;64.30;;;;;;5049286;28;20114;-69
2022/12/06 11:08:50;;;;;;;3.70;1.38;;;14.50;64.40;;;;;;5050424;28;20074;-68
2022/12/06 11:11:28;;;;;;;3.47;1.30;;;14.50;64.40;;;;;;5049879;28;20080;-71
2022/12/06 11:14:10;;;;;;;8.50;1.30;;;14.50;64.50;;;;;;5050718;28;20116;-69
2022/12/06 11:16:45;;;;;;;4.10;1.38;;;14.50;64.80;;;;;;5051687;28;20092;-70
2022/12/06 11:19:26;;;;;;;6.72;1.50;;;14.50;65.00;;;;;;5051285;28;20072;-68
2022/12/06 11:22:24;;;;;;;5.63;1.55;;;14.50;65.10;;;;;;5051820;28;20527;-67
2022/12/06 11:25:01;;;;;;;3.72;1.30;;;14.40;65.40;;;;;;5049521;28;20105;-70
2022/12/06 11:27:35;;;;;;;4.05;1.20;;;14.40;65.60;;;;;;5051965;28;20598;-68
2022/12/06 11:30:11;;;;;;;4.60;1.10;;;14.40;65.70;;;;;;5052314;28;20465;-71
2022/12/06 11:32:38;;;;;;;4.32;1.10;;;14.40;66.00;;;;;;5051097;28;20095;-68
2022/12/06 11:35:10;;;;;;;4.85;1.38;;;14.30;66.30;;;;;;5051913;28;20108;-69
2022/12/06 11:37:40;;;;;;;4.15;1.50;;;14.30;66.60;;;;;;5050910;28;20094;-69
2022/12/06 11:40:20;;;;;;;5.35;1.10;;;14.20;66.70;;;;;;5051390;28;20088;-69
2022/12/06 11:42:47;;;;;;;4.85;1.40;;;14.20;67.40;;;;;;5051106;28;20100;-68
2022/12/06 11:45:25;;;;;;;4.05;0.93;;;14.20;67.80;;;;;;5050164;28;20086;-69
2022/12/06 11:48:00;;;;;;;8.15;1.40;;;14.10;68.30;;;;;;5051696;28;20553;-69
2022/12/06 11:50:29;;;;;;;5.22;1.30;;;14.10;68.50;;;;;;5050345;28;20081;-68
2022/12/06 11:53:16;;;;;;;4.55;1.45;;;14.10;69.00;;;;;;5051245;28;20109;-70
2022/12/06 11:55:46;;;;;;;6.45;1.50;;;14.10;69.10;;;;;;5050867;28;20082;-68
2022/12/06 11:58:45;;;;;;;3.97;1.30;;;14.00;69.30;;;;;;5051060;28;20065;-68
2022/12/06 12:01:13;;;;;;;4.88;1.40;;;14.00;69.50;;;;;;5048678;28;20066;-68
2022/12/06 12:03:42;;;;;;;5.75;1.92;;;14.00;69.20;;;;;;5050363;28;20070;-69
2022/12/06 12:06:28;;;;;;;6.40;1.60;;;14.00;69.10;;;;;;5049035;28;20120;-68
2022/12/06 12:09:06;;;;;;;4.57;1.63;;;14.00;69.30;;;;;;5051639;28;20076;-70
2022/12/06 12:11:36;;;;;;;7.95;1.52;;;14.00;69.70;;;;;;5050288;28;20473;-69
2022/12/06 12:14:28;;;;;;;4.25;1.10;;;14.00;69.70;;;;;;5050843;28;20116;-70
2022/12/06 12:17:00;;;;;;;7.15;1.42;;;14.00;70.10;;;;;;5045079;28;20180;-70
2022/12/06 12:19:38;;;;;;;5.53;1.60;;;14.00;70.00;;;;;;5050945;28;20070;-68
2022/12/06 12:22:28;;;;;;;13.02;1.80;;;14.00;70.20;;;;;;5049904;28;20077;-71
2022/12/06 12:24:57;;;;;;;5.22;1.40;;;14.00;70.30;;;;;;5049830;28;20072;-69
2022/12/06 12:27:35;;;;;;;6.65;1.48;;;13.90;70.40;;;;;;5050117;28;20077;-69
2022/12/06 12:30:31;;;;;;;8.32;1.70;;;13.90;70.60;;;;;;5049534;28;20083;-69
2022/12/06 12:33:07;;;;;;;3.70;1.30;;;13.90;70.60;;;;;;5049959;28;20097;-69
2022/12/06 12:35:36;;;;;;;10.55;1.73;;;13.90;70.90;;;;;;5047931;28;20111;-69
2022/12/06 12:38:09;;;;;;;8.43;1.70;;;13.90;71.30;;;;;;5050922;28;20530;-69
2022/12/06 12:40:57;;;;;;;3.75;1.30;;;13.80;71.30;;;;;;5049870;28;20074;-69
2022/12/06 12:43:30;;;;;;;7.88;1.40;;;13.80;71.40;;;;;;5049476;28;20925;-69
2022/12/06 12:46:06;;;;;;;7.03;1.13;;;13.80;71.60;;;;;;5048780;28;20487;-67
2022/12/06 12:48:34;;;;;;;6.28;1.55;;;13.80;71.40;;;;;;5050079;28;20073;-68
2022/12/06 12:51:22;;;;;;;5.53;1.60;;;13.90;71.90;;;;;;5049712;28;20076;-68
2022/12/06 12:54:00;;;;;;;4.68;1.30;;;13.90;71.00;;;;;;5049343;28;20235;-69
2022/12/06 12:56:31;;;;;;;5.22;1.50;;;13.90;70.90;;;;;;5049901;28;20072;-70
2022/12/06 12:58:59;;;;;;;4.60;1.25;;;13.90;71.20;;;;;;5049363;28;20078;-67
2022/12/06 13:01:43;;;;;;;3.63;1.40;;;13.90;71.30;;;;;;5050007;28;20069;-70
2022/12/06 13:04:43;;;;;;;6.68;1.70;;;13.80;71.10;;;;;;5046909;28;20116;-69
2022/12/06 13:07:22;;;;;;;2.55;1.08;;;13.90;70.80;;;;;;5046264;28;20119;-69
2022/12/06 13:10:07;;;;;;;4.32;1.27;;;13.90;70.40;;;;;;5049219;28;20078;-68
2022/12/06 13:12:51;;;;;;;5.18;1.20;;;13.90;70.20;;;;;;5048851;28;20550;-67
2022/12/06 13:15:29;;;;;;;4.95;1.38;;;13.90;70.00;;;;;;5048364;28;20077;-67
2022/12/06 13:17:59;;;;;;;3.72;1.10;;;13.90;70.00;;;;;;5049223;28;20124;-70
2022/12/06 13:20:32;;;;;;;6.70;1.45;;;13.80;70.50;;;;;;5046641;28;20144;-68
2022/12/06 13:23:12;;;;;;;7.78;1.48;;;13.80;70.90;;;;;;5049120;28;20078;-68
2022/12/06 13:25:41;;;;;;;3.83;1.30;;;13.80;71.20;;;;;;5049304;28;20077;-69
2022/12/06 13:28:19;;;;;;;5.22;1.48;;;13.80;71.60;;;;;;5048812;28;20106;-68
2022/12/06 13:30:50;;;;;;;7.57;1.67;;;13.80;71.70;;;;;;5049760;28;20096;-68
2022/12/06 13:33:24;;;;;;;13.40;2.28;;;13.80;72.20;;;;;;5049738;28;20427;-70
2022/12/06 13:35:55;;;;;;;5.32;1.50;;;13.70;72.40;;;;;;5046875;28;20080;-70
2022/12/06 13:38:31;;;;;;;8.05;1.40;;;13.70;72.70;;;;;;5050538;28;20169;-69